Austinville, Virginia
Current Conditions -  °F | °C
As of 10:55 AM on Friday 31 Oct 2014 (Local Time) from KHLX Reporting Station
Overcast Overcast  
Wind Chill: 38°   Ceiling: 1600
Heat Index: 41°   Visibility: 10mi
Dew Point: 36°   Wind: 5mph
Humidity: 81%   Direction: 220°SW
Pressure: 29.94"   Gusts: NA
Location:  36.85°N, 80.91°W
Report Text: KHLX 311455Z AUTO 22004KT 10SM OVC016 05/02 A2994 RMK AO2 T00500020
Loading
Personal Weather Stations






























Interactive Weather Map
Tropical Storm Tracking
New forecast layout! Learn more

10-Day Weather Forecast

Advertisements
Track Severe Weather on mobile